Check out our new PWSWeather beta!
PWSweather.com
Personal Weather Stations
Station Observations
SANDHURSTWX
SandhurstGB

SandhurstGB

Lat: 51.3522, Lon: -0.7739

Elevation: 272.3

Station Type: Davis VP2

www.sandhurstweather.org.uk

High Low Average
Temperature 45.2°F7.3°C 35.5°F1.9°C 41.3°F5.2°C
Dew Point 41.1°F5.1°C 32.3°F0.2°C 37.3°F2.9°C
Winds 9.2 mph 14.8 kmh 2.3 mph 3.7 kmh 5.0 mph WSW8.0 kmh WSW
Wind Gusts 13.8 mph22.2 kmh 3.5 mph5.6 kmh 8.0 mph12.9 kmh
Humidity 91% 75% 86%
Pressure 29.69 in1005.4 mb 29.42 in996.3 mb -
Precipitation 0.02 in0.5 mm - -
Hour Temp Dew Point Humidity Winds Wind Gusts Pressure Precip Precip Rate Daily Precip Total
12:00 AM 44.5°F6.9°C 41.1°F5.1°C 88% 4.6 mph SW7.4 kmh SW 5.8 mph9.3 kmh 29.69 in1005.4 mb - 0.00 in0.0 mm 0.00 in0.0 mm
01:00 AM 42.9°F6.1°C 39.6°F4.2°C 88% 4.6 mph SW7.4 kmh SW 6.9 mph11.1 kmh 29.68 in1005.1 mb - 0.00 in0.0 mm 0.00 in0.0 mm
02:00 AM 42.9°F6.1°C 39.5°F4.2°C 88% 3.5 mph SW5.6 kmh SW 4.6 mph7.4 kmh 29.67 in1004.7 mb - 0.00 in0.0 mm 0.00 in0.0 mm
03:00 AM 41.9°F5.5°C 38.6°F3.7°C 88% 4.6 mph SW7.4 kmh SW 11.5 mph18.5 kmh 29.66 in1004.4 mb - 0.00 in0.0 mm 0.00 in0.0 mm
04:00 AM 41.1°F5.1°C 37.8°F3.2°C 88% 4.6 mph SW7.4 kmh SW 4.6 mph7.4 kmh 29.66 in1004.4 mb - 0.00 in0.0 mm 0.00 in0.0 mm
05:00 AM 40.1°F4.5°C 37.1°F2.8°C 89% 2.3 mph SW3.7 kmh SW 3.5 mph5.6 kmh 29.64 in1003.7 mb - 0.00 in0.0 mm 0.00 in0.0 mm
06:00 AM 40.0°F4.4°C 37.6°F3.1°C 91% 3.5 mph NW5.6 kmh NW 5.8 mph9.3 kmh 29.64 in1003.7 mb - 0.00 in0.0 mm 0.00 in0.0 mm
07:00 AM 40.5°F4.7°C 37.8°F3.2°C 90% 3.5 mph S5.6 kmh S 3.5 mph5.6 kmh 29.61 in1002.7 mb - 0.00 in0.0 mm 0.00 in0.0 mm
08:00 AM 40.5°F4.7°C 37.8°F3.2°C 90% 3.5 mph SW5.6 kmh SW 4.6 mph7.4 kmh 29.60 in1002.4 mb - 0.00 in0.0 mm 0.00 in0.0 mm
09:00 AM 42.5°F5.8°C 38.6°F3.7°C 86% 5.8 mph WSW9.3 kmh WSW 8.1 mph13.0 kmh 29.59 in1002.0 mb - 0.00 in0.0 mm 0.00 in0.0 mm
10:00 AM 44.2°F6.8°C 39.7°F4.3°C 84% 4.6 mph WSW7.4 kmh WSW 3.5 mph5.6 kmh 29.57 in1001.4 mb - 0.00 in0.0 mm 0.00 in0.0 mm
11:00 AM 44.6°F7.0°C 39.4°F4.1°C 82% 3.5 mph WSW5.6 kmh WSW 4.6 mph7.4 kmh 29.56 in1001.0 mb - 0.00 in0.0 mm 0.00 in0.0 mm
12:00 PM 45.2°F7.3°C 37.7°F3.2°C 75% 8.1 mph WSW13.0 kmh WSW 13.8 mph22.2 kmh 29.54 in1000.3 mb - 0.00 in0.0 mm 0.00 in0.0 mm
01:00 PM 45.2°F7.3°C 38.0°F3.3°C 76% 6.9 mph W11.1 kmh W 9.2 mph14.8 kmh 29.51 in999.3 mb - 0.00 in0.0 mm 0.00 in0.0 mm
02:00 PM 42.7°F5.9°C 38.8°F3.8°C 86% 4.6 mph SW7.4 kmh SW 9.2 mph14.8 kmh 29.49 in998.6 mb - 0.00 in0.0 mm 0.00 in0.0 mm
03:00 PM 43.8°F6.6°C 38.7°F3.7°C 82% 4.6 mph WSW7.4 kmh WSW 9.2 mph14.8 kmh 29.46 in997.6 mb - 0.00 in0.0 mm 0.00 in0.0 mm
04:00 PM 43.3°F6.3°C 38.2°F3.4°C 82% 9.2 mph WNW14.8 kmh WNW 13.8 mph22.2 kmh 29.44 in997.0 mb - 0.01 in0.3 mm 0.01 in0.3 mm
05:00 PM 39.4°F4.1°C 37.0°F2.8°C 91% 3.5 mph WSW5.6 kmh WSW 5.8 mph9.3 kmh 29.43 in996.6 mb - 0.01 in0.3 mm 0.02 in0.5 mm
06:00 PM 39.3°F4.1°C 35.7°F2.1°C 87% 5.8 mph W9.3 kmh W 12.7 mph20.4 kmh 29.42 in996.3 mb - 0.00 in0.0 mm 0.02 in0.5 mm
07:00 PM 38.4°F3.6°C 34.9°F1.6°C 87% 6.9 mph WSW11.1 kmh WSW 13.8 mph22.2 kmh 29.42 in996.3 mb - 0.00 in0.0 mm 0.02 in0.5 mm
08:00 PM 38.2°F3.4°C 34.1°F1.2°C 85% 5.8 mph W9.3 kmh W 10.4 mph16.7 kmh 29.43 in996.6 mb - 0.01 in0.3 mm 0.02 in0.5 mm
09:00 PM 37.5°F3.1°C 33.1°F0.6°C 84% 4.6 mph SW7.4 kmh SW 8.1 mph13.0 kmh 29.43 in996.6 mb - 0.00 in0.0 mm 0.02 in0.5 mm
10:00 PM 36.2°F2.3°C 32.7°F0.4°C 87% 2.3 mph W3.7 kmh W 3.5 mph5.6 kmh 29.44 in997.0 mb - 0.00 in0.0 mm 0.02 in0.5 mm
11:00 PM 35.5°F1.9°C 32.3°F0.2°C 88% 3.5 mph SW5.6 kmh SW 4.6 mph7.4 kmh 29.45 in997.3 mb - 0.00 in0.0 mm 0.02 in0.5 mm